createdAt,value
2023-02-07T00:00:41.198Z,94.96
2023-02-07T00:03:44.723Z,95.25
2023-02-07T00:06:47.512Z,94.46
2023-02-07T00:09:50.954Z,94.16
2023-02-07T00:12:54.116Z,94.59
2023-02-07T00:15:56.957Z,95.10
2023-02-07T00:19:00.464Z,95.25
2023-02-07T00:22:03.920Z,95.42
2023-02-07T00:25:06.862Z,95.16
2023-02-07T00:28:12.794Z,95.10
2023-02-07T00:31:19.466Z,94.72
2023-02-07T00:34:22.311Z,95.11
2023-02-07T00:37:25.046Z,95.09
2023-02-07T00:40:28.780Z,94.94
2023-02-07T00:43:31.975Z,94.67
2023-02-07T00:46:35.929Z,94.37
2023-02-07T00:49:38.765Z,94.49
2023-02-07T00:52:44.514Z,94.86
2023-02-07T00:55:47.442Z,94.89
2023-02-07T00:58:51.076Z,95.05
2023-02-07T01:01:53.979Z,95.26
2023-02-07T01:04:56.968Z,95.01
2023-02-07T01:07:59.967Z,95.08
2023-02-07T01:11:09.276Z,95.16
2023-02-07T01:14:13.093Z,95.02
2023-02-07T01:17:18.859Z,94.71
2023-02-07T01:20:25.162Z,94.81
2023-02-07T01:23:28.010Z,94.90
2023-02-07T01:26:30.961Z,94.85
2023-02-07T01:29:37.051Z,94.88
2023-02-07T01:32:43.035Z,94.82
2023-02-07T01:35:47.339Z,94.52
2023-02-07T01:38:52.403Z,94.22
2023-02-07T01:41:55.273Z,94.83
2023-02-07T01:45:16.902Z,95.45
2023-02-07T01:48:31.816Z,94.93
2023-02-07T01:51:35.650Z,94.91
2023-02-07T01:54:38.835Z,94.66
2023-02-07T01:57:41.920Z,94.67
2023-02-07T02:00:45.506Z,94.92
2023-02-07T02:03:50.057Z,94.56
2023-02-07T02:06:53.351Z,94.34
2023-02-07T02:09:56.189Z,94.74
2023-02-07T02:13:06.543Z,95.08
2023-02-07T02:16:15.486Z,94.92
2023-02-07T02:20:06.313Z,94.56
2023-02-07T02:23:20.977Z,95.23
2023-02-07T02:26:35.068Z,95.44
2023-02-07T02:29:49.041Z,95.03
2023-02-07T02:33:10.406Z,94.57
2023-02-07T02:36:35.163Z,94.89
2023-02-07T02:40:17.141Z,94.88
2023-02-07T02:43:36.139Z,94.34
2023-02-07T02:46:40.458Z,95.01
2023-02-07T02:49:44.795Z,95.54
2023-02-07T02:52:50.903Z,95.72
2023-02-07T02:56:15.822Z,95.13
2023-02-07T02:59:49.754Z,94.95
2023-02-07T03:03:16.100Z,95.04
2023-02-07T03:06:34.097Z,95.31
2023-02-07T03:10:09.185Z,95.32
2023-02-07T03:13:16.360Z,95.03
2023-02-07T03:16:34.340Z,95.03
2023-02-07T03:19:50.255Z,94.91
2023-02-07T03:22:53.852Z,95.11
2023-02-07T03:25:58.792Z,94.90
2023-02-07T03:29:04.086Z,94.68
2023-02-07T03:32:11.323Z,94.54
2023-02-07T03:35:26.329Z,95.17
2023-02-07T03:38:29.255Z,95.23
2023-02-07T03:41:42.685Z,95.13
2023-02-07T03:44:45.859Z,95.21
2023-02-07T03:47:49.437Z,95.25
2023-02-07T03:50:53.196Z,95.16
2023-02-07T03:53:59.369Z,95.08
2023-02-07T03:57:02.734Z,95.15
2023-02-07T04:00:07.314Z,95.26
2023-02-07T04:03:18.794Z,95.11
2023-02-07T04:06:23.211Z,95.71
2023-02-07T04:09:28.829Z,95.62
2023-02-07T04:12:34.584Z,95.21
2023-02-07T04:15:38.401Z,95.29
2023-02-07T04:18:41.548Z,95.16
2023-02-07T04:21:48.166Z,94.96
2023-02-07T04:24:51.021Z,95.17
2023-02-07T04:27:56.887Z,95.47
2023-02-07T04:30:59.865Z,95.98
2023-02-07T04:34:02.690Z,95.97
2023-02-07T04:37:05.659Z,95.89
2023-02-07T04:40:08.883Z,95.53
2023-02-07T04:43:23.640Z,95.13
2023-02-07T04:46:30.524Z,95.14
2023-02-07T04:49:34.559Z,95.07
2023-02-07T04:52:37.905Z,95.51
2023-02-07T04:55:40.910Z,95.62
2023-02-07T04:58:44.133Z,95.44
2023-02-07T05:01:47.466Z,95.43
2023-02-07T05:04:50.383Z,95.72
2023-02-07T05:07:53.349Z,95.91
2023-02-07T05:11:02.479Z,95.88
2023-02-07T05:14:05.333Z,95.89
2023-02-07T05:17:12.002Z,96.20
2023-02-07T05:20:14.937Z,96.20
2023-02-07T05:23:18.355Z,95.97
2023-02-07T05:26:21.214Z,95.94
2023-02-07T05:29:24.238Z,96.13
2023-02-07T05:32:45.583Z,96.50
2023-02-07T05:35:48.579Z,96.38
2023-02-07T05:38:54.568Z,95.70
2023-02-07T05:41:57.298Z,95.72
2023-02-07T05:45:00.251Z,95.83
2023-02-07T05:48:09.176Z,95.84
2023-02-07T05:51:12.985Z,96.12
2023-02-07T05:54:18.765Z,96.02
2023-02-07T05:57:21.589Z,95.86
2023-02-07T06:00:24.640Z,95.72
2023-02-07T06:03:33.730Z,95.72
2023-02-07T06:06:39.493Z,96.20
2023-02-07T06:09:45.239Z,95.92
2023-02-07T06:12:48.049Z,95.77
2023-02-07T06:15:50.913Z,95.89
2023-02-07T06:18:56.962Z,96.18
2023-02-07T06:22:02.748Z,96.75
2023-02-07T06:25:05.871Z,96.78
2023-02-07T06:28:09.157Z,96.53
2023-02-07T06:31:13.004Z,96.54
2023-02-07T06:34:19.115Z,96.82
2023-02-07T06:37:21.831Z,96.25
2023-02-07T06:40:25.366Z,96.30
2023-02-07T06:43:28.134Z,96.55
2023-02-07T06:46:31.526Z,96.92
2023-02-07T06:49:35.059Z,98.00
2023-02-07T06:52:37.970Z,97.64
2023-02-07T06:55:41.019Z,97.65
2023-02-07T06:58:53.329Z,97.99
2023-02-07T07:02:00.763Z,97.96
2023-02-07T07:05:04.140Z,97.74
2023-02-07T07:08:07.679Z,98.64
2023-02-07T07:11:10.575Z,99.48
2023-02-07T07:14:13.396Z,99.67
2023-02-07T07:17:19.355Z,100.00
2023-02-07T07:20:23.529Z,100.00
2023-02-07T07:23:27.073Z,100.00
2023-02-07T07:26:47.861Z,100.00
2023-02-07T07:29:54.987Z,100.00
2023-02-07T07:32:57.759Z,100.00
2023-02-07T07:36:01.763Z,100.00
2023-02-07T07:39:05.466Z,100.00
2023-02-07T07:42:08.397Z,100.00
2023-02-07T07:45:11.267Z,100.00
2023-02-07T07:48:17.407Z,100.00
2023-02-07T07:51:20.471Z,100.00
2023-02-07T07:54:23.622Z,100.00
2023-02-07T07:57:32.788Z,100.00
2023-02-07T08:00:39.430Z,100.00
2023-02-07T08:03:42.424Z,100.00
2023-02-07T08:06:46.079Z,100.00
2023-02-07T08:09:48.904Z,99.69
2023-02-07T08:12:51.769Z,98.85
2023-02-07T08:15:55.503Z,98.96
2023-02-07T08:18:58.367Z,97.96
2023-02-07T08:22:01.217Z,97.25
2023-02-07T08:25:13.445Z,96.93
2023-02-07T08:28:20.188Z,96.51
2023-02-07T08:31:23.467Z,97.40
2023-02-07T08:34:29.131Z,95.40
2023-02-07T08:37:31.994Z,93.80
2023-02-07T08:40:35.536Z,93.91
2023-02-07T08:43:39.502Z,94.95
2023-02-07T08:46:42.870Z,93.16
2023-02-07T08:49:45.795Z,92.43
2023-02-07T08:52:48.600Z,92.59
2023-02-07T08:55:52.193Z,91.72
2023-02-07T08:58:55.048Z,90.81
2023-02-07T09:02:07.757Z,89.71
2023-02-07T09:05:12.538Z,88.64
2023-02-07T09:08:15.567Z,86.54
2023-02-07T09:11:18.788Z,87.15
2023-02-07T09:14:22.355Z,86.24
2023-02-07T09:17:25.333Z,86.25
2023-02-07T09:20:29.854Z,84.70
2023-02-07T09:23:37.209Z,83.61
2023-02-07T09:26:45.862Z,83.52
2023-02-07T09:29:49.222Z,82.31
2023-02-07T09:32:53.449Z,80.78
2023-02-07T09:35:59.469Z,79.22
2023-02-07T09:39:03.950Z,80.97
2023-02-07T09:42:43.721Z,80.80
2023-02-07T09:45:49.283Z,79.05
2023-02-07T09:49:18.452Z,75.14
2023-02-07T09:52:31.772Z,75.14
2023-02-07T09:55:50.460Z,75.70
2023-02-07T09:59:24.180Z,73.44
2023-02-07T10:02:34.964Z,73.90
2023-02-07T10:05:46.352Z,73.71
2023-02-07T10:08:52.750Z,72.78
2023-02-07T10:12:28.801Z,71.64
2023-02-07T10:15:43.382Z,70.39
2023-02-07T10:19:09.957Z,69.61
2023-02-07T10:22:42.069Z,68.88
2023-02-07T10:26:12.550Z,67.47
2023-02-07T10:29:26.367Z,67.66
2023-02-07T10:32:34.129Z,65.85
2023-02-07T10:35:37.555Z,64.53
2023-02-07T10:38:50.257Z,64.12
2023-02-07T10:42:00.220Z,62.49
2023-02-07T10:45:05.580Z,60.02
2023-02-07T10:48:20.070Z,62.36
2023-02-07T10:51:36.977Z,59.65
2023-02-07T10:54:54.762Z,59.94
2023-02-07T10:58:08.538Z,58.47
2023-02-07T11:01:24.195Z,59.79
2023-02-07T11:04:38.980Z,57.83
2023-02-07T11:07:47.940Z,56.77
2023-02-07T11:10:56.078Z,54.93
2023-02-07T11:14:05.446Z,57.07
2023-02-07T11:17:08.365Z,56.32
2023-02-07T11:20:21.443Z,56.21
2023-02-07T11:23:24.498Z,54.94
2023-02-07T11:26:32.072Z,54.10
2023-02-07T11:29:41.807Z,55.61
2023-02-07T11:32:58.143Z,55.70
2023-02-07T11:36:12.762Z,53.71
2023-02-07T11:39:19.798Z,53.72
2023-02-07T11:42:26.239Z,54.75
2023-02-07T11:45:34.713Z,54.17
2023-02-07T11:48:40.356Z,52.23
2023-02-07T11:51:46.478Z,54.02
2023-02-07T11:54:53.561Z,51.13
2023-02-07T11:58:07.696Z,51.92
2023-02-07T12:01:18.028Z,52.10
2023-02-07T12:04:28.059Z,53.10
2023-02-07T12:07:39.423Z,52.13
2023-02-07T12:10:46.298Z,52.16
2023-02-07T12:14:02.275Z,52.35
2023-02-07T12:17:10.148Z,50.84
2023-02-07T12:20:39.650Z,50.16
2023-02-07T12:24:01.177Z,48.87
2023-02-07T12:27:16.047Z,50.55
2023-02-07T12:30:39.785Z,50.08
2023-02-07T12:33:49.204Z,48.04
2023-02-07T12:36:56.921Z,47.76
2023-02-07T12:40:21.809Z,47.30
2023-02-07T12:43:27.702Z,46.50
2023-02-07T12:46:50.537Z,44.28
2023-02-07T12:50:02.500Z,44.87
2023-02-07T12:53:22.501Z,44.40
2023-02-07T12:56:36.394Z,41.75
2023-02-07T13:00:06.466Z,41.82
2023-02-07T13:03:42.547Z,40.20
2023-02-07T13:07:15.098Z,41.63
2023-02-07T13:10:41.512Z,40.22
2023-02-07T13:14:05.114Z,40.22
2023-02-07T13:17:32.926Z,40.54
2023-02-07T13:20:51.938Z,39.09
2023-02-07T13:24:01.487Z,37.78
2023-02-07T13:27:08.451Z,40.28
2023-02-07T13:30:17.096Z,39.49
2023-02-07T13:33:39.423Z,40.40
2023-02-07T13:36:49.444Z,38.81
2023-02-07T13:40:06.369Z,39.68
2023-02-07T13:43:21.246Z,38.66
2023-02-07T13:46:45.797Z,39.45
2023-02-07T13:50:12.643Z,39.04
2023-02-07T13:53:37.436Z,39.52
2023-02-07T13:57:15.043Z,40.72
2023-02-07T14:00:21.186Z,41.05
2023-02-07T14:03:33.255Z,40.64
2023-02-07T14:06:41.206Z,40.03
2023-02-07T14:09:48.511Z,40.34
2023-02-07T14:12:54.488Z,40.46
2023-02-07T14:16:01.626Z,41.62
2023-02-07T14:19:04.721Z,41.79
2023-02-07T14:22:30.492Z,40.31
2023-02-07T14:25:36.697Z,39.16
2023-02-07T14:28:39.874Z,39.59
2023-02-07T14:32:22.395Z,39.01
2023-02-07T14:35:28.132Z,38.13
2023-02-07T14:38:38.159Z,39.35
2023-02-07T14:41:43.350Z,38.81
2023-02-07T14:44:50.125Z,38.40
2023-02-07T14:47:53.094Z,37.90
2023-02-07T14:50:56.120Z,39.00
2023-02-07T14:54:23.950Z,39.75
2023-02-07T14:57:36.189Z,38.65
2023-02-07T15:00:45.402Z,38.32
2023-02-07T15:04:06.170Z,39.02
2023-02-07T15:07:13.493Z,38.41
2023-02-07T15:10:27.789Z,37.77
2023-02-07T15:13:34.379Z,39.01
2023-02-07T15:16:40.386Z,39.35
2023-02-07T15:19:43.218Z,40.27
2023-02-07T15:22:50.705Z,41.71
2023-02-07T15:25:53.696Z,42.65
2023-02-07T15:29:02.257Z,44.46
2023-02-07T15:32:24.497Z,46.22
2023-02-07T15:35:30.093Z,47.91
2023-02-07T15:38:33.428Z,48.97
2023-02-07T15:41:39.129Z,51.09
2023-02-07T15:44:56.562Z,52.42
2023-02-07T15:48:03.411Z,53.59
2023-02-07T15:51:11.265Z,54.27
2023-02-07T15:54:16.503Z,55.13
2023-02-07T15:57:26.483Z,55.86
2023-02-07T16:00:32.097Z,58.16
2023-02-07T16:03:37.870Z,57.88
2023-02-07T16:06:55.194Z,60.12
2023-02-07T16:10:24.039Z,59.78
2023-02-07T16:13:26.881Z,60.19
2023-02-07T16:16:36.187Z,60.31
2023-02-07T16:19:46.441Z,60.88
2023-02-07T16:22:50.187Z,61.81
2023-02-07T16:25:53.374Z,63.79
2023-02-07T16:28:56.644Z,62.16
2023-02-07T16:31:59.800Z,62.88
2023-02-07T16:35:02.817Z,63.88
2023-02-07T16:38:06.437Z,64.70
2023-02-07T16:41:33.137Z,65.42
2023-02-07T16:44:37.275Z,65.68
2023-02-07T16:47:40.050Z,66.34
2023-02-07T16:50:43.377Z,66.96
2023-02-07T16:53:46.116Z,66.82
2023-02-07T16:56:51.755Z,66.94
2023-02-07T16:59:54.476Z,67.69
2023-02-07T17:02:58.377Z,69.71
2023-02-07T17:06:01.272Z,69.24
2023-02-07T17:09:04.718Z,69.93
2023-02-07T17:12:09.220Z,72.09
2023-02-07T17:15:12.382Z,71.28
2023-02-07T17:18:15.279Z,70.74
2023-02-07T17:21:18.442Z,71.50
2023-02-07T17:24:21.457Z,72.99
2023-02-07T17:27:24.409Z,72.27
2023-02-07T17:30:38.860Z,74.74
2023-02-07T17:33:41.890Z,75.44
2023-02-07T17:36:47.769Z,75.28
2023-02-07T17:39:54.417Z,76.38
2023-02-07T17:42:57.862Z,77.20
2023-02-07T17:46:01.999Z,78.16
2023-02-07T17:49:06.538Z,78.17
2023-02-07T17:52:15.476Z,78.68
2023-02-07T17:55:21.552Z,79.24
2023-02-07T17:58:24.912Z,79.95
2023-02-07T18:01:28.310Z,78.95
2023-02-07T18:04:31.419Z,80.15
2023-02-07T18:07:34.119Z,80.63
2023-02-07T18:10:39.694Z,80.46
2023-02-07T18:13:46.109Z,79.92
2023-02-07T18:16:49.436Z,81.04
2023-02-07T18:19:52.610Z,81.68
2023-02-07T18:22:57.223Z,81.36
2023-02-07T18:26:00.952Z,81.80
2023-02-07T18:29:04.092Z,82.19
2023-02-07T18:32:08.297Z,81.46
2023-02-07T18:35:12.113Z,83.59
2023-02-07T18:38:15.838Z,84.45
2023-02-07T18:41:23.598Z,83.66
2023-02-07T18:44:27.033Z,85.40
2023-02-07T18:47:31.985Z,84.65
2023-02-07T18:50:35.433Z,85.06
2023-02-07T18:53:39.538Z,84.68
2023-02-07T18:56:42.861Z,84.46
2023-02-07T18:59:45.691Z,85.68
2023-02-07T19:02:49.240Z,85.48
2023-02-07T19:05:57.671Z,85.98
2023-02-07T19:09:03.787Z,86.13
2023-02-07T19:12:09.243Z,86.88
2023-02-07T19:15:13.062Z,87.75
2023-02-07T19:18:16.340Z,88.43
2023-02-07T19:21:24.070Z,87.54
2023-02-07T19:24:27.960Z,87.13
2023-02-07T19:27:30.845Z,88.47
2023-02-07T19:30:34.252Z,88.36
2023-02-07T19:33:37.295Z,88.68
2023-02-07T19:36:41.429Z,89.28
2023-02-07T19:39:46.367Z,89.57
2023-02-07T19:42:49.745Z,89.28
2023-02-07T19:45:53.887Z,90.15
2023-02-07T19:48:58.943Z,90.54
2023-02-07T19:52:01.940Z,90.36
2023-02-07T19:55:05.308Z,90.15
2023-02-07T19:58:08.689Z,90.84
2023-02-07T20:01:12.718Z,90.32
2023-02-07T20:04:15.832Z,91.10
2023-02-07T20:07:19.083Z,90.93
2023-02-07T20:10:22.567Z,90.66
2023-02-07T20:13:25.669Z,91.08
2023-02-07T20:16:31.662Z,90.64
2023-02-07T20:19:35.874Z,90.49
2023-02-07T20:22:39.003Z,90.90
2023-02-07T20:25:42.354Z,91.36
2023-02-07T20:28:46.486Z,91.38
2023-02-07T20:31:50.175Z,90.70
2023-02-07T20:34:53.388Z,91.06
2023-02-07T20:37:57.196Z,91.12
2023-02-07T20:41:08.987Z,90.00
2023-02-07T20:44:14.991Z,90.49
2023-02-07T20:47:18.039Z,91.63
2023-02-07T20:50:22.360Z,91.93
2023-02-07T20:53:25.504Z,92.83
2023-02-07T20:56:29.017Z,92.73
2023-02-07T20:59:33.051Z,92.97
2023-02-07T21:02:37.149Z,92.92
2023-02-07T21:05:40.116Z,92.72
2023-02-07T21:08:43.305Z,92.84
2023-02-07T21:11:49.203Z,92.78
2023-02-07T21:14:52.213Z,92.79
2023-02-07T21:17:54.984Z,92.39
2023-02-07T21:20:58.225Z,91.78
2023-02-07T21:24:01.401Z,91.79
2023-02-07T21:27:05.356Z,92.71
2023-02-07T21:30:09.013Z,93.47
2023-02-07T21:33:15.568Z,93.78
2023-02-07T21:36:25.810Z,94.12
2023-02-07T21:39:28.871Z,94.16
2023-02-07T21:42:32.172Z,93.12
2023-02-07T21:45:35.220Z,94.24
2023-02-07T21:48:39.453Z,93.96
2023-02-07T21:51:43.715Z,94.02
2023-02-07T21:54:46.554Z,94.51
2023-02-07T21:57:49.431Z,94.43
2023-02-07T22:00:55.218Z,94.56
2023-02-07T22:03:59.931Z,94.34
2023-02-07T22:07:02.765Z,94.61
2023-02-07T22:10:05.805Z,95.48
2023-02-07T22:13:12.970Z,95.29
2023-02-07T22:16:17.397Z,94.47
2023-02-07T22:19:21.028Z,94.66
2023-02-07T22:22:23.875Z,94.14
2023-02-07T22:25:26.640Z,94.20
2023-02-07T22:28:30.055Z,95.35
2023-02-07T22:31:35.733Z,95.20
2023-02-07T22:34:41.070Z,95.28
2023-02-07T22:37:43.810Z,94.20
2023-02-07T22:40:46.749Z,93.74
2023-02-07T22:43:49.672Z,94.72
2023-02-07T22:46:52.528Z,94.91
2023-02-07T22:49:55.298Z,94.59
2023-02-07T22:52:58.540Z,94.64
2023-02-07T22:56:02.044Z,94.52
2023-02-07T22:59:05.749Z,94.25
2023-02-07T23:02:08.821Z,94.08
2023-02-07T23:05:12.224Z,93.85
2023-02-07T23:08:14.962Z,94.01
2023-02-07T23:11:19.894Z,94.74
2023-02-07T23:14:22.747Z,94.92
2023-02-07T23:17:26.479Z,94.95
2023-02-07T23:20:29.923Z,94.88
2023-02-07T23:23:32.747Z,94.77
2023-02-07T23:26:35.614Z,94.27
2023-02-07T23:29:40.413Z,93.97
2023-02-07T23:32:43.316Z,94.03
2023-02-07T23:35:46.026Z,94.57
2023-02-07T23:38:49.450Z,94.33
2023-02-07T23:41:52.206Z,94.13
2023-02-07T23:44:54.961Z,95.18
2023-02-07T23:47:58.527Z,94.82
2023-02-07T23:51:03.743Z,94.65
2023-02-07T23:54:06.454Z,94.62
2023-02-07T23:57:09.189Z,94.32
